sensor_id;sensor_type;location;lat;lon;timestamp;P1;durP1;ratioP1;P2;durP2;ratioP2
16502;SDS011;53067;48.114;11.694;2023-06-14T00:01:13;3.27;;;3.07;;
16502;SDS011;53067;48.114;11.694;2023-06-14T00:03:41;3.10;;;2.90;;
16502;SDS011;53067;48.114;11.694;2023-06-14T00:06:08;3.43;;;3.17;;
16502;SDS011;53067;48.114;11.694;2023-06-14T00:08:37;3.70;;;3.40;;
16502;SDS011;53067;48.114;11.694;2023-06-14T00:11:05;3.30;;;3.10;;
16502;SDS011;53067;48.114;11.694;2023-06-14T00:13:33;3.60;;;3.30;;
16502;SDS011;53067;48.114;11.694;2023-06-14T00:16:01;3.90;;;3.60;;
16502;SDS011;53067;48.114;11.694;2023-06-14T00:18:29;3.47;;;3.13;;
16502;SDS011;53067;48.114;11.694;2023-06-14T00:20:57;3.30;;;3.00;;
16502;SDS011;53067;48.114;11.694;2023-06-14T00:23:24;3.50;;;3.20;;
16502;SDS011;53067;48.114;11.694;2023-06-14T00:25:52;3.63;;;3.33;;
16502;SDS011;53067;48.114;11.694;2023-06-14T00:28:19;3.30;;;3.00;;
16502;SDS011;53067;48.114;11.694;2023-06-14T00:30:47;4.13;;;3.70;;
16502;SDS011;53067;48.114;11.694;2023-06-14T00:33:15;3.70;;;3.40;;
16502;SDS011;53067;48.114;11.694;2023-06-14T00:35:42;3.43;;;3.10;;
16502;SDS011;53067;48.114;11.694;2023-06-14T00:38:10;5.27;;;3.27;;
16502;SDS011;53067;48.114;11.694;2023-06-14T00:40:37;5.60;;;3.47;;
16502;SDS011;53067;48.114;11.694;2023-06-14T00:43:05;3.57;;;3.27;;
16502;SDS011;53067;48.114;11.694;2023-06-14T00:45:33;3.63;;;3.33;;
16502;SDS011;53067;48.114;11.694;2023-06-14T00:48:01;3.47;;;3.17;;
16502;SDS011;53067;48.114;11.694;2023-06-14T00:50:32;4.10;;;3.33;;
16502;SDS011;53067;48.114;11.694;2023-06-14T00:53:00;4.90;;;3.30;;
16502;SDS011;53067;48.114;11.694;2023-06-14T00:55:28;3.53;;;3.23;;
16502;SDS011;53067;48.114;11.694;2023-06-14T00:57:58;4.33;;;3.00;;
16502;SDS011;53067;48.114;11.694;2023-06-14T01:00:26;3.40;;;3.10;;
16502;SDS011;53067;48.114;11.694;2023-06-14T01:02:54;3.50;;;3.20;;
16502;SDS011;53067;48.114;11.694;2023-06-14T01:05:22;3.60;;;3.30;;
16502;SDS011;53067;48.114;11.694;2023-06-14T01:07:55;3.50;;;3.20;;
16502;SDS011;53067;48.114;11.694;2023-06-14T01:13:27;3.57;;;3.27;;
16502;SDS011;53067;48.114;11.694;2023-06-14T01:15:55;3.57;;;3.27;;
16502;SDS011;53067;48.114;11.694;2023-06-14T01:18:23;3.50;;;3.20;;
16502;SDS011;53067;48.114;11.694;2023-06-14T01:20:51;3.57;;;3.27;;
16502;SDS011;53067;48.114;11.694;2023-06-14T01:23:21;4.33;;;3.63;;
16502;SDS011;53067;48.114;11.694;2023-06-14T01:25:49;3.80;;;3.50;;
16502;SDS011;53067;48.114;11.694;2023-06-14T01:28:21;3.47;;;3.17;;
16502;SDS011;53067;48.114;11.694;2023-06-14T01:30:53;3.27;;;3.07;;
16502;SDS011;53067;48.114;11.694;2023-06-14T01:33:20;3.30;;;3.10;;
16502;SDS011;53067;48.114;11.694;2023-06-14T01:35:49;4.93;;;3.70;;
16502;SDS011;53067;48.114;11.694;2023-06-14T01:38:19;3.67;;;3.33;;
16502;SDS011;53067;48.114;11.694;2023-06-14T01:40:48;3.80;;;3.43;;
16502;SDS011;53067;48.114;11.694;2023-06-14T01:43:21;3.93;;;3.63;;
16502;SDS011;53067;48.114;11.694;2023-06-14T01:45:50;3.80;;;3.50;;
16502;SDS011;53067;48.114;11.694;2023-06-14T01:48:20;3.53;;;3.23;;
16502;SDS011;53067;48.114;11.694;2023-06-14T01:50:48;4.17;;;3.70;;
16502;SDS011;53067;48.114;11.694;2023-06-14T01:53:16;4.67;;;3.53;;
16502;SDS011;53067;48.114;11.694;2023-06-14T01:55:44;3.43;;;3.23;;
16502;SDS011;53067;48.114;11.694;2023-06-14T01:58:13;5.23;;;3.57;;
16502;SDS011;53067;48.114;11.694;2023-06-14T02:00:44;4.10;;;3.80;;
16502;SDS011;53067;48.114;11.694;2023-06-14T02:03:13;3.80;;;3.50;;
16502;SDS011;53067;48.114;11.694;2023-06-14T02:05:41;4.20;;;3.80;;
16502;SDS011;53067;48.114;11.694;2023-06-14T02:08:09;3.67;;;3.37;;
16502;SDS011;53067;48.114;11.694;2023-06-14T02:10:36;4.03;;;3.63;;
16502;SDS011;53067;48.114;11.694;2023-06-14T02:13:04;3.93;;;3.63;;
16502;SDS011;53067;48.114;11.694;2023-06-14T02:15:31;3.33;;;3.13;;
16502;SDS011;53067;48.114;11.694;2023-06-14T02:18:02;4.00;;;3.70;;
16502;SDS011;53067;48.114;11.694;2023-06-14T02:20:39;4.33;;;3.93;;
16502;SDS011;53067;48.114;11.694;2023-06-14T02:23:07;3.60;;;3.30;;
16502;SDS011;53067;48.114;11.694;2023-06-14T02:25:34;3.73;;;3.47;;
16502;SDS011;53067;48.114;11.694;2023-06-14T02:28:02;3.90;;;3.60;;
16502;SDS011;53067;48.114;11.694;2023-06-14T02:30:51;5.07;;;3.40;;
16502;SDS011;53067;48.114;11.694;2023-06-14T02:33:18;3.97;;;3.67;;
16502;SDS011;53067;48.114;11.694;2023-06-14T02:35:46;4.13;;;3.83;;
16502;SDS011;53067;48.114;11.694;2023-06-14T02:38:13;4.27;;;3.53;;
16502;SDS011;53067;48.114;11.694;2023-06-14T02:40:41;4.67;;;3.60;;
16502;SDS011;53067;48.114;11.694;2023-06-14T02:43:08;3.70;;;3.40;;
16502;SDS011;53067;48.114;11.694;2023-06-14T02:45:36;3.90;;;3.60;;
16502;SDS011;53067;48.114;11.694;2023-06-14T02:48:05;3.97;;;3.67;;
16502;SDS011;53067;48.114;11.694;2023-06-14T02:50:37;4.03;;;3.73;;
16502;SDS011;53067;48.114;11.694;2023-06-14T02:53:04;4.07;;;3.77;;
16502;SDS011;53067;48.114;11.694;2023-06-14T02:55:32;3.93;;;3.63;;
16502;SDS011;53067;48.114;11.694;2023-06-14T02:58:01;3.63;;;3.23;;
16502;SDS011;53067;48.114;11.694;2023-06-14T03:00:29;4.33;;;3.30;;
16502;SDS011;53067;48.114;11.694;2023-06-14T03:02:56;4.10;;;3.80;;
16502;SDS011;53067;48.114;11.694;2023-06-14T03:05:26;4.07;;;3.40;;
16502;SDS011;53067;48.114;11.694;2023-06-14T03:07:53;4.10;;;3.67;;
16502;SDS011;53067;48.114;11.694;2023-06-14T03:10:21;3.90;;;3.60;;
16502;SDS011;53067;48.114;11.694;2023-06-14T03:12:49;3.80;;;3.50;;
16502;SDS011;53067;48.114;11.694;2023-06-14T03:15:17;3.83;;;3.40;;
16502;SDS011;53067;48.114;11.694;2023-06-14T03:17:44;3.70;;;3.43;;
16502;SDS011;53067;48.114;11.694;2023-06-14T03:20:14;3.77;;;3.43;;
16502;SDS011;53067;48.114;11.694;2023-06-14T03:22:41;3.87;;;3.57;;
16502;SDS011;53067;48.114;11.694;2023-06-14T03:25:10;3.60;;;3.30;;
16502;SDS011;53067;48.114;11.694;2023-06-14T03:27:38;4.00;;;3.60;;
16502;SDS011;53067;48.114;11.694;2023-06-14T03:30:06;7.73;;;4.23;;
16502;SDS011;53067;48.114;11.694;2023-06-14T03:32:34;4.03;;;3.63;;
16502;SDS011;53067;48.114;11.694;2023-06-14T03:35:02;3.63;;;3.40;;
16502;SDS011;53067;48.114;11.694;2023-06-14T03:37:32;4.30;;;3.63;;
16502;SDS011;53067;48.114;11.694;2023-06-14T03:39:59;3.83;;;3.43;;
16502;SDS011;53067;48.114;11.694;2023-06-14T03:42:27;4.50;;;4.10;;
16502;SDS011;53067;48.114;11.694;2023-06-14T03:44:55;4.10;;;3.80;;
16502;SDS011;53067;48.114;11.694;2023-06-14T03:47:22;4.27;;;3.97;;
16502;SDS011;53067;48.114;11.694;2023-06-14T03:49:50;5.27;;;4.00;;
16502;SDS011;53067;48.114;11.694;2023-06-14T03:52:17;4.10;;;3.67;;
16502;SDS011;53067;48.114;11.694;2023-06-14T03:54:45;4.20;;;3.80;;
16502;SDS011;53067;48.114;11.694;2023-06-14T03:57:14;4.63;;;3.50;;
16502;SDS011;53067;48.114;11.694;2023-06-14T03:59:42;3.97;;;3.67;;
16502;SDS011;53067;48.114;11.694;2023-06-14T04:02:09;3.77;;;3.40;;
16502;SDS011;53067;48.114;11.694;2023-06-14T04:04:37;3.90;;;3.50;;
16502;SDS011;53067;48.114;11.694;2023-06-14T04:07:05;4.53;;;4.13;;
16502;SDS011;53067;48.114;11.694;2023-06-14T04:09:34;4.27;;;3.90;;
16502;SDS011;53067;48.114;11.694;2023-06-14T04:12:02;4.27;;;3.97;;
16502;SDS011;53067;48.114;11.694;2023-06-14T04:14:29;4.10;;;3.70;;
16502;SDS011;53067;48.114;11.694;2023-06-14T04:16:58;3.90;;;3.60;;
16502;SDS011;53067;48.114;11.694;2023-06-14T04:19:26;3.80;;;3.50;;
16502;SDS011;53067;48.114;11.694;2023-06-14T04:21:54;4.00;;;3.70;;
16502;SDS011;53067;48.114;11.694;2023-06-14T04:24:21;3.80;;;3.50;;
16502;SDS011;53067;48.114;11.694;2023-06-14T04:26:51;4.13;;;3.83;;
16502;SDS011;53067;48.114;11.694;2023-06-14T04:29:19;4.43;;;4.07;;
16502;SDS011;53067;48.114;11.694;2023-06-14T04:31:47;4.33;;;3.93;;
16502;SDS011;53067;48.114;11.694;2023-06-14T04:34:15;4.07;;;3.77;;
16502;SDS011;53067;48.114;11.694;2023-06-14T04:36:43;4.07;;;3.67;;
16502;SDS011;53067;48.114;11.694;2023-06-14T04:39:21;4.07;;;3.77;;
16502;SDS011;53067;48.114;11.694;2023-06-14T04:41:49;3.90;;;3.60;;
16502;SDS011;53067;48.114;11.694;2023-06-14T04:44:21;4.10;;;3.70;;
16502;SDS011;53067;48.114;11.694;2023-06-14T04:46:51;4.10;;;3.80;;
16502;SDS011;53067;48.114;11.694;2023-06-14T04:49:18;4.03;;;3.73;;
16502;SDS011;53067;48.114;11.694;2023-06-14T04:51:46;4.97;;;3.53;;
16502;SDS011;53067;48.114;11.694;2023-06-14T04:54:15;4.17;;;3.67;;
16502;SDS011;53067;48.114;11.694;2023-06-14T04:56:44;5.73;;;3.87;;
16502;SDS011;53067;48.114;11.694;2023-06-14T04:59:12;3.23;;;3.03;;
16502;SDS011;53067;48.114;11.694;2023-06-14T05:01:40;3.93;;;3.63;;
16502;SDS011;53067;48.114;11.694;2023-06-14T05:04:09;3.80;;;3.50;;
16502;SDS011;53067;48.114;11.694;2023-06-14T05:06:37;4.23;;;3.87;;
16502;SDS011;53067;48.114;11.694;2023-06-14T05:09:06;3.87;;;3.60;;
16502;SDS011;53067;48.114;11.694;2023-06-14T05:11:34;4.43;;;3.77;;
16502;SDS011;53067;48.114;11.694;2023-06-14T05:14:01;4.63;;;3.53;;
16502;SDS011;53067;48.114;11.694;2023-06-14T05:16:29;3.80;;;3.50;;
16502;SDS011;53067;48.114;11.694;2023-06-14T05:18:56;4.47;;;3.57;;
16502;SDS011;53067;48.114;11.694;2023-06-14T05:21:27;3.70;;;3.40;;
16502;SDS011;53067;48.114;11.694;2023-06-14T05:23:54;4.17;;;3.87;;
16502;SDS011;53067;48.114;11.694;2023-06-14T05:26:22;4.07;;;3.60;;
16502;SDS011;53067;48.114;11.694;2023-06-14T05:28:54;3.83;;;3.43;;
16502;SDS011;53067;48.114;11.694;2023-06-14T05:31:25;4.00;;;3.70;;
16502;SDS011;53067;48.114;11.694;2023-06-14T05:33:54;4.00;;;3.70;;
16502;SDS011;53067;48.114;11.694;2023-06-14T05:36:22;4.43;;;3.97;;
16502;SDS011;53067;48.114;11.694;2023-06-14T05:38:49;4.13;;;3.73;;
16502;SDS011;53067;48.114;11.694;2023-06-14T05:41:19;4.43;;;4.00;;
16502;SDS011;53067;48.114;11.694;2023-06-14T05:43:46;3.40;;;3.10;;
16502;SDS011;53067;48.114;11.694;2023-06-14T05:46:14;3.83;;;3.50;;
16502;SDS011;53067;48.114;11.694;2023-06-14T05:48:41;3.50;;;3.23;;
16502;SDS011;53067;48.114;11.694;2023-06-14T05:51:09;4.37;;;3.77;;
16502;SDS011;53067;48.114;11.694;2023-06-14T05:53:37;4.40;;;3.20;;
16502;SDS011;53067;48.114;11.694;2023-06-14T05:56:05;3.83;;;3.53;;
16502;SDS011;53067;48.114;11.694;2023-06-14T05:58:32;3.63;;;3.33;;
16502;SDS011;53067;48.114;11.694;2023-06-14T06:01:00;5.20;;;3.50;;
16502;SDS011;53067;48.114;11.694;2023-06-14T06:03:28;3.80;;;3.50;;
16502;SDS011;53067;48.114;11.694;2023-06-14T06:05:55;3.80;;;3.50;;
16502;SDS011;53067;48.114;11.694;2023-06-14T06:08:23;3.70;;;3.40;;
16502;SDS011;53067;48.114;11.694;2023-06-14T06:10:50;4.40;;;3.50;;
16502;SDS011;53067;48.114;11.694;2023-06-14T06:13:18;6.10;;;3.47;;
16502;SDS011;53067;48.114;11.694;2023-06-14T06:15:50;7.47;;;3.90;;
16502;SDS011;53067;48.114;11.694;2023-06-14T06:18:17;6.17;;;3.83;;
16502;SDS011;53067;48.114;11.694;2023-06-14T06:20:45;5.37;;;3.83;;
16502;SDS011;53067;48.114;11.694;2023-06-14T06:23:13;7.47;;;3.73;;
16502;SDS011;53067;48.114;11.694;2023-06-14T06:25:40;5.97;;;3.77;;
16502;SDS011;53067;48.114;11.694;2023-06-14T06:28:09;4.67;;;3.80;;
16502;SDS011;53067;48.114;11.694;2023-06-14T06:30:36;8.70;;;3.80;;
16502;SDS011;53067;48.114;11.694;2023-06-14T06:33:04;6.07;;;3.50;;
16502;SDS011;53067;48.114;11.694;2023-06-14T06:35:32;3.80;;;3.50;;
16502;SDS011;53067;48.114;11.694;2023-06-14T06:37:59;5.13;;;3.53;;
16502;SDS011;53067;48.114;11.694;2023-06-14T06:40:27;4.23;;;3.37;;
16502;SDS011;53067;48.114;11.694;2023-06-14T06:42:54;3.70;;;3.40;;
16502;SDS011;53067;48.114;11.694;2023-06-14T06:45:22;4.07;;;3.37;;
16502;SDS011;53067;48.114;11.694;2023-06-14T06:47:50;3.00;;;2.70;;
16502;SDS011;53067;48.114;11.694;2023-06-14T06:50:18;7.57;;;3.70;;
16502;SDS011;53067;48.114;11.694;2023-06-14T06:52:51;4.47;;;3.57;;
16502;SDS011;53067;48.114;11.694;2023-06-14T06:55:19;6.03;;;3.87;;
16502;SDS011;53067;48.114;11.694;2023-06-14T06:57:46;6.57;;;3.70;;
16502;SDS011;53067;48.114;11.694;2023-06-14T07:00:15;5.97;;;3.73;;
16502;SDS011;53067;48.114;11.694;2023-06-14T07:02:44;3.17;;;2.97;;
16502;SDS011;53067;48.114;11.694;2023-06-14T07:05:11;4.00;;;3.10;;
16502;SDS011;53067;48.114;11.694;2023-06-14T07:07:40;3.83;;;3.43;;
16502;SDS011;53067;48.114;11.694;2023-06-14T07:10:08;6.50;;;3.63;;
16502;SDS011;53067;48.114;11.694;2023-06-14T07:12:36;3.33;;;3.13;;
16502;SDS011;53067;48.114;11.694;2023-06-14T07:15:11;4.07;;;3.47;;
16502;SDS011;53067;48.114;11.694;2023-06-14T07:17:34;4.37;;;3.00;;
16502;SDS011;53067;48.114;11.694;2023-06-14T07:20:03;5.80;;;3.63;;
16502;SDS011;53067;48.114;11.694;2023-06-14T07:22:34;3.13;;;2.93;;
16502;SDS011;53067;48.114;11.694;2023-06-14T07:25:02;3.37;;;3.13;;
16502;SDS011;53067;48.114;11.694;2023-06-14T07:27:29;5.17;;;3.40;;
16502;SDS011;53067;48.114;11.694;2023-06-14T07:29:57;3.07;;;2.87;;
16502;SDS011;53067;48.114;11.694;2023-06-14T07:32:24;3.62;;;3.33;;
16502;SDS011;53067;48.114;11.694;2023-06-14T07:34:52;2.97;;;2.77;;
16502;SDS011;53067;48.114;11.694;2023-06-14T07:37:19;3.37;;;3.15;;
16502;SDS011;53067;48.114;11.694;2023-06-14T07:39:47;3.03;;;2.83;;
16502;SDS011;53067;48.114;11.694;2023-06-14T07:42:14;3.35;;;3.00;;
16502;SDS011;53067;48.114;11.694;2023-06-14T07:44:42;5.03;;;3.00;;
16502;SDS011;53067;48.114;11.694;2023-06-14T07:47:09;3.63;;;3.00;;
16502;SDS011;53067;48.114;11.694;2023-06-14T07:49:37;3.73;;;3.43;;
16502;SDS011;53067;48.114;11.694;2023-06-14T07:52:05;4.47;;;2.98;;
16502;SDS011;53067;48.114;11.694;2023-06-14T07:54:32;3.00;;;2.50;;
16502;SDS011;53067;48.114;11.694;2023-06-14T07:57:00;3.70;;;2.80;;
16502;SDS011;53067;48.114;11.694;2023-06-14T07:59:28;3.08;;;2.77;;
16502;SDS011;53067;48.114;11.694;2023-06-14T08:01:56;3.02;;;2.80;;
16502;SDS011;53067;48.114;11.694;2023-06-14T08:04:23;4.10;;;2.90;;
16502;SDS011;53067;48.114;11.694;2023-06-14T08:06:51;2.85;;;2.65;;
16502;SDS011;53067;48.114;11.694;2023-06-14T08:09:19;3.52;;;3.10;;
16502;SDS011;53067;48.114;11.694;2023-06-14T08:11:46;2.87;;;2.60;;
16502;SDS011;53067;48.114;11.694;2023-06-14T08:14:14;3.95;;;2.62;;
16502;SDS011;53067;48.114;11.694;2023-06-14T08:16:41;3.25;;;2.80;;
16502;SDS011;53067;48.114;11.694;2023-06-14T08:19:09;2.55;;;2.35;;
16502;SDS011;53067;48.114;11.694;2023-06-14T08:21:37;2.85;;;2.65;;
16502;SDS011;53067;48.114;11.694;2023-06-14T08:24:05;3.45;;;2.60;;
16502;SDS011;53067;48.114;11.694;2023-06-14T08:26:33;2.75;;;2.55;;
16502;SDS011;53067;48.114;11.694;2023-06-14T08:29:02;3.10;;;2.90;;
16502;SDS011;53067;48.114;11.694;2023-06-14T08:31:30;2.90;;;2.70;;
16502;SDS011;53067;48.114;11.694;2023-06-14T08:33:57;3.80;;;2.80;;
16502;SDS011;53067;48.114;11.694;2023-06-14T08:36:25;3.10;;;2.80;;
16502;SDS011;53067;48.114;11.694;2023-06-14T08:38:52;6.03;;;2.95;;
16502;SDS011;53067;48.114;11.694;2023-06-14T08:41:21;2.92;;;2.72;;
16502;SDS011;53067;48.114;11.694;2023-06-14T08:43:50;3.02;;;2.80;;
16502;SDS011;53067;48.114;11.694;2023-06-14T08:46:18;4.70;;;2.50;;
16502;SDS011;53067;48.114;11.694;2023-06-14T08:48:53;3.70;;;2.70;;
16502;SDS011;53067;48.114;11.694;2023-06-14T08:51:18;3.45;;;2.60;;
16502;SDS011;53067;48.114;11.694;2023-06-14T08:53:50;3.12;;;2.92;;
16502;SDS011;53067;48.114;11.694;2023-06-14T08:56:28;3.08;;;2.80;;
16502;SDS011;53067;48.114;11.694;2023-06-14T08:58:53;4.05;;;2.62;;
16502;SDS011;53067;48.114;11.694;2023-06-14T09:01:22;2.92;;;2.72;;
16502;SDS011;53067;48.114;11.694;2023-06-14T09:03:50;2.98;;;2.77;;
16502;SDS011;53067;48.114;11.694;2023-06-14T09:06:19;3.70;;;2.67;;
16502;SDS011;53067;48.114;11.694;2023-06-14T09:08:53;3.77;;;3.30;;
16502;SDS011;53067;48.114;11.694;2023-06-14T09:11:36;3.40;;;3.08;;
16502;SDS011;53067;48.114;11.694;2023-06-14T09:14:11;5.55;;;2.90;;
16502;SDS011;53067;48.114;11.694;2023-06-14T09:16:39;3.37;;;2.83;;
16502;SDS011;53067;48.114;11.694;2023-06-14T09:19:06;3.98;;;2.70;;
16502;SDS011;53067;48.114;11.694;2023-06-14T09:21:34;3.35;;;2.47;;
16502;SDS011;53067;48.114;11.694;2023-06-14T09:24:03;2.85;;;2.62;;
16502;SDS011;53067;48.114;11.694;2023-06-14T09:26:31;3.15;;;2.95;;
16502;SDS011;53067;48.114;11.694;2023-06-14T09:28:58;2.90;;;2.70;;
16502;SDS011;53067;48.114;11.694;2023-06-14T09:31:26;3.17;;;2.98;;
16502;SDS011;53067;48.114;11.694;2023-06-14T09:33:55;3.00;;;2.70;;
16502;SDS011;53067;48.114;11.694;2023-06-14T09:36:23;3.27;;;2.90;;
16502;SDS011;53067;48.114;11.694;2023-06-14T09:38:56;2.75;;;2.55;;
16502;SDS011;53067;48.114;11.694;2023-06-14T09:41:33;3.37;;;3.00;;
16502;SDS011;53067;48.114;11.694;2023-06-14T09:44:05;3.45;;;3.15;;
16502;SDS011;53067;48.114;11.694;2023-06-14T09:46:35;3.20;;;2.90;;
16502;SDS011;53067;48.114;11.694;2023-06-14T09:49:04;3.15;;;2.92;;
16502;SDS011;53067;48.114;11.694;2023-06-14T09:51:32;2.80;;;2.60;;
16502;SDS011;53067;48.114;11.694;2023-06-14T09:54:02;3.27;;;3.08;;
16502;SDS011;53067;48.114;11.694;2023-06-14T09:56:38;3.58;;;3.05;;
16502;SDS011;53067;48.114;11.694;2023-06-14T09:59:06;4.83;;;3.05;;
16502;SDS011;53067;48.114;11.694;2023-06-14T10:01:41;2.85;;;2.45;;
16502;SDS011;53067;48.114;11.694;2023-06-14T10:04:09;3.02;;;2.80;;
16502;SDS011;53067;48.114;11.694;2023-06-14T10:06:39;3.40;;;3.20;;
16502;SDS011;53067;48.114;11.694;2023-06-14T10:09:09;4.45;;;2.80;;
16502;SDS011;53067;48.114;11.694;2023-06-14T10:11:37;2.72;;;2.52;;
16502;SDS011;53067;48.114;11.694;2023-06-14T10:14:07;4.08;;;3.27;;
16502;SDS011;53067;48.114;11.694;2023-06-14T10:16:44;3.20;;;3.00;;
16502;SDS011;53067;48.114;11.694;2023-06-14T10:22:02;3.25;;;3.05;;
16502;SDS011;53067;48.114;11.694;2023-06-14T10:24:41;3.47;;;2.98;;
16502;SDS011;53067;48.114;11.694;2023-06-14T10:27:09;4.28;;;3.30;;
16502;SDS011;53067;48.114;11.694;2023-06-14T10:32:27;3.22;;;2.75;;
16502;SDS011;53067;48.114;11.694;2023-06-14T10:34:56;3.22;;;2.92;;
16502;SDS011;53067;48.114;11.694;2023-06-14T10:37:25;5.20;;;3.42;;
16502;SDS011;53067;48.114;11.694;2023-06-14T10:39:53;3.67;;;2.90;;
16502;SDS011;53067;48.114;11.694;2023-06-14T10:42:21;4.08;;;3.10;;
16502;SDS011;53067;48.114;11.694;2023-06-14T10:44:50;3.90;;;3.37;;
16502;SDS011;53067;48.114;11.694;2023-06-14T10:47:28;3.00;;;2.80;;
16502;SDS011;53067;48.114;11.694;2023-06-14T10:52:28;4.62;;;3.40;;
16502;SDS011;53067;48.114;11.694;2023-06-14T10:57:45;3.40;;;3.10;;
16502;SDS011;53067;48.114;11.694;2023-06-14T11:00:17;5.15;;;3.33;;
16502;SDS011;53067;48.114;11.694;2023-06-14T11:05:55;3.72;;;3.42;;
16502;SDS011;53067;48.114;11.694;2023-06-14T11:08:24;3.80;;;3.45;;
16502;SDS011;53067;48.114;11.694;2023-06-14T11:11:06;3.60;;;3.30;;
16502;SDS011;53067;48.114;11.694;2023-06-14T11:13:39;4.37;;;3.20;;
16502;SDS011;53067;48.114;11.694;2023-06-14T11:16:15;3.98;;;3.55;;
16502;SDS011;53067;48.114;11.694;2023-06-14T11:18:45;3.85;;;3.50;;
16502;SDS011;53067;48.114;11.694;2023-06-14T11:21:18;3.60;;;3.30;;
16502;SDS011;53067;48.114;11.694;2023-06-14T11:23:49;3.45;;;3.15;;
16502;SDS011;53067;48.114;11.694;2023-06-14T11:26:24;3.70;;;2.92;;
16502;SDS011;53067;48.114;11.694;2023-06-14T11:29:01;3.40;;;3.20;;
16502;SDS011;53067;48.114;11.694;2023-06-14T11:31:27;3.33;;;3.12;;
16502;SDS011;53067;48.114;11.694;2023-06-14T11:33:55;5.80;;;3.08;;
16502;SDS011;53067;48.114;11.694;2023-06-14T11:36:33;4.40;;;3.17;;
16502;SDS011;53067;48.114;11.694;2023-06-14T11:39:03;4.80;;;3.37;;
16502;SDS011;53067;48.114;11.694;2023-06-14T11:41:38;3.75;;;3.22;;
16502;SDS011;53067;48.114;11.694;2023-06-14T11:44:08;3.67;;;3.33;;
16502;SDS011;53067;48.114;11.694;2023-06-14T11:46:37;3.22;;;2.90;;
16502;SDS011;53067;48.114;11.694;2023-06-14T11:49:06;3.47;;;3.27;;
16502;SDS011;53067;48.114;11.694;2023-06-14T11:51:35;3.30;;;3.10;;
16502;SDS011;53067;48.114;11.694;2023-06-14T11:54:19;5.15;;;3.08;;
16502;SDS011;53067;48.114;11.694;2023-06-14T11:56:47;4.00;;;3.00;;
16502;SDS011;53067;48.114;11.694;2023-06-14T11:59:15;4.05;;;3.12;;
16502;SDS011;53067;48.114;11.694;2023-06-14T12:01:43;3.47;;;3.17;;
16502;SDS011;53067;48.114;11.694;2023-06-14T12:04:11;6.75;;;3.45;;
16502;SDS011;53067;48.114;11.694;2023-06-14T12:06:38;3.90;;;3.58;;
16502;SDS011;53067;48.114;11.694;2023-06-14T12:09:06;3.40;;;3.10;;
16502;SDS011;53067;48.114;11.694;2023-06-14T12:11:36;3.83;;;3.52;;
16502;SDS011;53067;48.114;11.694;2023-06-14T12:14:08;4.17;;;3.40;;
16502;SDS011;53067;48.114;11.694;2023-06-14T12:16:35;3.27;;;3.00;;
16502;SDS011;53067;48.114;11.694;2023-06-14T12:19:08;4.45;;;3.20;;
16502;SDS011;53067;48.114;11.694;2023-06-14T12:21:38;3.87;;;3.55;;
16502;SDS011;53067;48.114;11.694;2023-06-14T12:24:11;3.33;;;3.12;;
16502;SDS011;53067;48.114;11.694;2023-06-14T12:26:39;3.52;;;3.02;;
16502;SDS011;53067;48.114;11.694;2023-06-14T12:29:08;3.37;;;3.17;;
16502;SDS011;53067;48.114;11.694;2023-06-14T12:31:36;3.60;;;3.40;;
16502;SDS011;53067;48.114;11.694;2023-06-14T12:34:03;4.10;;;3.05;;
16502;SDS011;53067;48.114;11.694;2023-06-14T12:36:31;3.55;;;3.10;;
16502;SDS011;53067;48.114;11.694;2023-06-14T12:38:58;3.55;;;3.25;;
16502;SDS011;53067;48.114;11.694;2023-06-14T12:41:26;4.03;;;3.58;;
16502;SDS011;53067;48.114;11.694;2023-06-14T12:43:53;3.10;;;2.87;;
16502;SDS011;53067;48.114;11.694;2023-06-14T12:46:21;4.03;;;3.08;;
16502;SDS011;53067;48.114;11.694;2023-06-14T12:48:48;3.37;;;3.17;;
16502;SDS011;53067;48.114;11.694;2023-06-14T12:51:16;3.47;;;3.17;;
16502;SDS011;53067;48.114;11.694;2023-06-14T12:53:43;4.00;;;3.62;;
16502;SDS011;53067;48.114;11.694;2023-06-14T12:56:11;7.20;;;3.40;;
16502;SDS011;53067;48.114;11.694;2023-06-14T12:58:38;4.95;;;3.33;;
16502;SDS011;53067;48.114;11.694;2023-06-14T13:01:06;3.25;;;3.05;;
16502;SDS011;53067;48.114;11.694;2023-06-14T13:03:33;3.87;;;3.27;;
16502;SDS011;53067;48.114;11.694;2023-06-14T13:06:01;3.45;;;3.15;;
16502;SDS011;53067;48.114;11.694;2023-06-14T13:08:30;3.70;;;3.50;;
16502;SDS011;53067;48.114;11.694;2023-06-14T13:10:58;3.20;;;2.90;;
16502;SDS011;53067;48.114;11.694;2023-06-14T13:13:26;4.67;;;3.33;;
16502;SDS011;53067;48.114;11.694;2023-06-14T13:15:53;3.00;;;2.80;;
16502;SDS011;53067;48.114;11.694;2023-06-14T13:18:21;3.55;;;3.30;;
16502;SDS011;53067;48.114;11.694;2023-06-14T13:20:49;3.83;;;3.30;;
16502;SDS011;53067;48.114;11.694;2023-06-14T13:23:16;3.22;;;3.02;;
16502;SDS011;53067;48.114;11.694;2023-06-14T13:25:44;3.40;;;3.10;;
16502;SDS011;53067;48.114;11.694;2023-06-14T13:28:12;3.80;;;3.50;;
16502;SDS011;53067;48.114;11.694;2023-06-14T13:30:39;3.60;;;3.30;;
16502;SDS011;53067;48.114;11.694;2023-06-14T13:33:06;3.83;;;3.42;;
16502;SDS011;53067;48.114;11.694;2023-06-14T13:35:34;5.35;;;3.40;;
16502;SDS011;53067;48.114;11.694;2023-06-14T13:38:02;4.33;;;3.08;;
16502;SDS011;53067;48.114;11.694;2023-06-14T13:40:29;3.67;;;3.37;;
16502;SDS011;53067;48.114;11.694;2023-06-14T13:42:57;3.30;;;3.00;;
16502;SDS011;53067;48.114;11.694;2023-06-14T13:45:24;3.47;;;3.27;;
16502;SDS011;53067;48.114;11.694;2023-06-14T13:47:52;4.00;;;3.65;;
16502;SDS011;53067;48.114;11.694;2023-06-14T13:50:20;4.72;;;3.17;;
16502;SDS011;53067;48.114;11.694;2023-06-14T13:52:48;3.25;;;3.05;;
16502;SDS011;53067;48.114;11.694;2023-06-14T13:55:15;3.15;;;2.95;;
16502;SDS011;53067;48.114;11.694;2023-06-14T13:57:43;3.50;;;2.98;;
16502;SDS011;53067;48.114;11.694;2023-06-14T14:00:11;3.45;;;3.02;;
16502;SDS011;53067;48.114;11.694;2023-06-14T14:02:39;3.72;;;3.05;;
16502;SDS011;53067;48.114;11.694;2023-06-14T14:05:07;3.20;;;3.00;;
16502;SDS011;53067;48.114;11.694;2023-06-14T14:07:35;3.92;;;3.25;;
16502;SDS011;53067;48.114;11.694;2023-06-14T14:10:04;3.40;;;3.20;;
16502;SDS011;53067;48.114;11.694;2023-06-14T14:12:32;3.15;;;2.95;;
16502;SDS011;53067;48.114;11.694;2023-06-14T14:14:59;7.03;;;3.37;;
16502;SDS011;53067;48.114;11.694;2023-06-14T14:17:27;4.15;;;3.50;;
16502;SDS011;53067;48.114;11.694;2023-06-14T14:19:54;2.95;;;2.75;;
16502;SDS011;53067;48.114;11.694;2023-06-14T14:22:22;2.98;;;2.77;;
16502;SDS011;53067;48.114;11.694;2023-06-14T14:24:49;2.98;;;2.77;;
16502;SDS011;53067;48.114;11.694;2023-06-14T14:27:17;3.80;;;3.50;;
16502;SDS011;53067;48.114;11.694;2023-06-14T14:29:45;3.83;;;3.52;;
16502;SDS011;53067;48.114;11.694;2023-06-14T14:32:12;4.20;;;3.40;;
16502;SDS011;53067;48.114;11.694;2023-06-14T14:34:41;3.60;;;3.30;;
16502;SDS011;53067;48.114;11.694;2023-06-14T14:37:08;3.55;;;3.25;;
16502;SDS011;53067;48.114;11.694;2023-06-14T14:39:36;3.33;;;3.08;;
16502;SDS011;53067;48.114;11.694;2023-06-14T14:42:04;4.70;;;3.22;;
16502;SDS011;53067;48.114;11.694;2023-06-14T14:44:33;3.33;;;3.12;;
16502;SDS011;53067;48.114;11.694;2023-06-14T14:47:01;3.20;;;2.87;;
16502;SDS011;53067;48.114;11.694;2023-06-14T14:49:29;3.37;;;3.17;;
16502;SDS011;53067;48.114;11.694;2023-06-14T14:51:57;5.45;;;3.98;;
16502;SDS011;53067;48.114;11.694;2023-06-14T14:54:25;4.92;;;2.98;;
16502;SDS011;53067;48.114;11.694;2023-06-14T14:56:54;3.50;;;3.27;;
16502;SDS011;53067;48.114;11.694;2023-06-14T14:59:22;4.62;;;3.75;;